sensor_id;sensor_type;location;lat;lon;timestamp;P1;durP1;ratioP1;P2;durP2;ratioP2
23684;SDS011;12020;51.384;6.908;2022-10-26T04:58:06;3.70;;;1.40;;
23684;SDS011;12020;51.384;6.908;2022-10-26T05:00:33;3.58;;;1.30;;
23684;SDS011;12020;51.384;6.908;2022-10-26T05:03:04;4.15;;;1.52;;
23684;SDS011;12020;51.384;6.908;2022-10-26T05:05:40;3.20;;;1.40;;
23684;SDS011;12020;51.384;6.908;2022-10-26T05:08:17;4.32;;;1.40;;
23684;SDS011;12020;51.384;6.908;2022-10-26T05:10:53;3.22;;;1.38;;
23684;SDS011;12020;51.384;6.908;2022-10-26T05:13:23;4.78;;;1.48;;
23684;SDS011;12020;51.384;6.908;2022-10-26T05:15:55;4.93;;;1.30;;
23684;SDS011;12020;51.384;6.908;2022-10-26T05:18:26;3.63;;;1.55;;
23684;SDS011;12020;51.384;6.908;2022-10-26T05:20:56;3.03;;;1.25;;
23684;SDS011;12020;51.384;6.908;2022-10-26T05:29:01;3.58;;;1.67;;
23684;SDS011;12020;51.384;6.908;2022-10-26T05:31:38;3.53;;;1.50;;
23684;SDS011;12020;51.384;6.908;2022-10-26T05:42:13;3.53;;;1.40;;
23684;SDS011;12020;51.384;6.908;2022-10-26T05:44:45;3.63;;;1.23;;
23684;SDS011;12020;51.384;6.908;2022-10-26T05:47:27;3.80;;;1.20;;
23684;SDS011;12020;51.384;6.908;2022-10-26T05:50:37;5.43;;;1.63;;
23684;SDS011;12020;51.384;6.908;2022-10-26T05:53:05;3.07;;;1.50;;
23684;SDS011;12020;51.384;6.908;2022-10-26T05:55:53;3.58;;;1.45;;
23684;SDS011;12020;51.384;6.908;2022-10-26T05:58:52;4.13;;;1.80;;
23684;SDS011;12020;51.384;6.908;2022-10-26T06:04:44;4.78;;;1.42;;
23684;SDS011;12020;51.384;6.908;2022-10-26T06:07:32;5.70;;;1.55;;
23684;SDS011;12020;51.384;6.908;2022-10-26T06:12:33;3.35;;;1.20;;
23684;SDS011;12020;51.384;6.908;2022-10-26T06:15:02;2.40;;;1.27;;
23684;SDS011;12020;51.384;6.908;2022-10-26T06:22:59;3.10;;;1.30;;
23684;SDS011;12020;51.384;6.908;2022-10-26T06:31:58;3.38;;;0.90;;
23684;SDS011;12020;51.384;6.908;2022-10-26T06:34:37;1.52;;;0.90;;
23684;SDS011;12020;51.384;6.908;2022-10-26T06:37:58;2.05;;;0.93;;
23684;SDS011;12020;51.384;6.908;2022-10-26T06:40:54;2.17;;;1.02;;
23684;SDS011;12020;51.384;6.908;2022-10-26T06:43:29;2.53;;;0.95;;
23684;SDS011;12020;51.384;6.908;2022-10-26T06:52:26;4.03;;;1.27;;
23684;SDS011;12020;51.384;6.908;2022-10-26T06:55:12;3.58;;;1.20;;
23684;SDS011;12020;51.384;6.908;2022-10-26T06:57:43;2.30;;;1.00;;
23684;SDS011;12020;51.384;6.908;2022-10-26T07:00:35;4.82;;;1.20;;
23684;SDS011;12020;51.384;6.908;2022-10-26T07:03:30;3.85;;;1.00;;
23684;SDS011;12020;51.384;6.908;2022-10-26T07:06:21;2.83;;;1.08;;
23684;SDS011;12020;51.384;6.908;2022-10-26T07:08:58;3.45;;;1.08;;
23684;SDS011;12020;51.384;6.908;2022-10-26T07:11:39;3.90;;;1.17;;
23684;SDS011;12020;51.384;6.908;2022-10-26T07:35:03;2.30;;;1.27;;
23684;SDS011;12020;51.384;6.908;2022-10-26T07:45:28;3.97;;;1.30;;
23684;SDS011;12020;51.384;6.908;2022-10-26T07:48:09;3.75;;;1.33;;
23684;SDS011;12020;51.384;6.908;2022-10-26T07:51:02;3.58;;;1.40;;
23684;SDS011;12020;51.384;6.908;2022-10-26T07:53:31;3.50;;;1.30;;
23684;SDS011;12020;51.384;6.908;2022-10-26T07:56:20;2.22;;;1.10;;
23684;SDS011;12020;51.384;6.908;2022-10-26T08:01:42;2.78;;;1.00;;
23684;SDS011;12020;51.384;6.908;2022-10-26T08:04:13;3.88;;;1.30;;
23684;SDS011;12020;51.384;6.908;2022-10-26T08:06:48;3.47;;;1.38;;
23684;SDS011;12020;51.384;6.908;2022-10-26T08:09:31;2.85;;;1.25;;
23684;SDS011;12020;51.384;6.908;2022-10-26T10:01:51;3.25;;;1.50;;
23684;SDS011;12020;51.384;6.908;2022-10-26T10:04:18;3.97;;;1.77;;
23684;SDS011;12020;51.384;6.908;2022-10-26T10:07:16;3.80;;;1.80;;
23684;SDS011;12020;51.384;6.908;2022-10-26T10:09:41;5.07;;;1.75;;
23684;SDS011;12020;51.384;6.908;2022-10-26T10:12:17;4.53;;;2.05;;
23684;SDS011;12020;51.384;6.908;2022-10-26T10:14:57;4.00;;;2.10;;
23684;SDS011;12020;51.384;6.908;2022-10-26T10:18:17;3.67;;;1.58;;
23684;SDS011;12020;51.384;6.908;2022-10-26T10:21:07;4.72;;;2.00;;
23684;SDS011;12020;51.384;6.908;2022-10-26T10:23:53;4.50;;;1.98;;
23684;SDS011;12020;51.384;6.908;2022-10-26T10:26:25;4.35;;;1.88;;
23684;SDS011;12020;51.384;6.908;2022-10-26T10:29:38;6.63;;;2.00;;
23684;SDS011;12020;51.384;6.908;2022-10-26T10:32:12;4.38;;;1.90;;
23684;SDS011;12020;51.384;6.908;2022-10-26T10:34:41;4.68;;;1.80;;
23684;SDS011;12020;51.384;6.908;2022-10-26T10:37:21;9.82;;;2.47;;
23684;SDS011;12020;51.384;6.908;2022-10-26T10:42:44;4.38;;;2.00;;
23684;SDS011;12020;51.384;6.908;2022-10-26T10:45:26;3.35;;;1.75;;
23684;SDS011;12020;51.384;6.908;2022-10-26T10:47:58;4.77;;;2.10;;
23684;SDS011;12020;51.384;6.908;2022-10-26T10:50:58;2.85;;;1.70;;
23684;SDS011;12020;51.384;6.908;2022-10-26T11:01:39;6.32;;;2.22;;
23684;SDS011;12020;51.384;6.908;2022-10-26T11:07:45;6.05;;;2.20;;
23684;SDS011;12020;51.384;6.908;2022-10-26T11:10:18;5.20;;;2.15;;
23684;SDS011;12020;51.384;6.908;2022-10-26T11:12:48;5.30;;;2.17;;
23684;SDS011;12020;51.384;6.908;2022-10-26T11:15:25;4.05;;;2.20;;
23684;SDS011;12020;51.384;6.908;2022-10-26T11:17:57;4.68;;;2.10;;
23684;SDS011;12020;51.384;6.908;2022-10-26T11:20:25;6.43;;;2.55;;
23684;SDS011;12020;51.384;6.908;2022-10-26T11:23:03;7.68;;;2.45;;
23684;SDS011;12020;51.384;6.908;2022-10-26T11:25:43;3.72;;;2.05;;
23684;SDS011;12020;51.384;6.908;2022-10-26T11:28:19;4.63;;;2.30;;
23684;SDS011;12020;51.384;6.908;2022-10-26T11:30:53;5.70;;;2.20;;
23684;SDS011;12020;51.384;6.908;2022-10-26T11:33:25;6.47;;;2.40;;
23684;SDS011;12020;51.384;6.908;2022-10-26T11:35:57;4.68;;;2.00;;
23684;SDS011;12020;51.384;6.908;2022-10-26T11:38:45;5.75;;;2.25;;
23684;SDS011;12020;51.384;6.908;2022-10-26T11:41:42;6.28;;;2.10;;
23684;SDS011;12020;51.384;6.908;2022-10-26T11:50:39;4.57;;;2.10;;
23684;SDS011;12020;51.384;6.908;2022-10-26T12:09:56;4.07;;;1.48;;
23684;SDS011;12020;51.384;6.908;2022-10-26T12:12:34;2.55;;;1.40;;
23684;SDS011;12020;51.384;6.908;2022-10-26T12:18:51;3.50;;;1.40;;
23684;SDS011;12020;51.384;6.908;2022-10-26T12:21:07;2.88;;;1.35;;
23684;SDS011;12020;51.384;6.908;2022-10-26T12:32:47;3.47;;;1.48;;
23684;SDS011;12020;51.384;6.908;2022-10-26T12:35:00;2.42;;;1.15;;
23684;SDS011;12020;51.384;6.908;2022-10-26T12:37:44;5.55;;;1.40;;
23684;SDS011;12020;51.384;6.908;2022-10-26T13:14:52;3.38;;;1.35;;
23684;SDS011;12020;51.384;6.908;2022-10-26T13:17:31;3.30;;;1.35;;
23684;SDS011;12020;51.384;6.908;2022-10-26T13:20:13;3.20;;;1.20;;
23684;SDS011;12020;51.384;6.908;2022-10-26T13:22:45;3.25;;;1.20;;
23684;SDS011;12020;51.384;6.908;2022-10-26T13:34:18;3.22;;;1.30;;
23684;SDS011;12020;51.384;6.908;2022-10-26T13:39:57;2.72;;;1.23;;
23684;SDS011;12020;51.384;6.908;2022-10-26T13:42:30;3.25;;;1.25;;
23684;SDS011;12020;51.384;6.908;2022-10-26T13:45:26;3.00;;;1.33;;
23684;SDS011;12020;51.384;6.908;2022-10-26T13:48:11;4.43;;;1.67;;
23684;SDS011;12020;51.384;6.908;2022-10-26T13:50:48;2.40;;;1.20;;
23684;SDS011;12020;51.384;6.908;2022-10-26T13:59:14;2.28;;;1.25;;
23684;SDS011;12020;51.384;6.908;2022-10-26T14:01:44;4.00;;;1.35;;
23684;SDS011;12020;51.384;6.908;2022-10-26T14:04:46;1.90;;;1.00;;
23684;SDS011;12020;51.384;6.908;2022-10-26T14:07:30;3.15;;;1.10;;
23684;SDS011;12020;51.384;6.908;2022-10-26T14:10:04;3.63;;;1.30;;
23684;SDS011;12020;51.384;6.908;2022-10-26T14:15:43;3.17;;;1.10;;
23684;SDS011;12020;51.384;6.908;2022-10-26T14:18:34;2.70;;;1.10;;
23684;SDS011;12020;51.384;6.908;2022-10-26T14:21:18;3.50;;;1.10;;
23684;SDS011;12020;51.384;6.908;2022-10-26T14:23:59;2.58;;;1.10;;
23684;SDS011;12020;51.384;6.908;2022-10-26T14:26:52;2.50;;;1.20;;
23684;SDS011;12020;51.384;6.908;2022-10-26T14:29:19;2.00;;;1.00;;
23684;SDS011;12020;51.384;6.908;2022-10-26T14:31:56;2.28;;;1.10;;
23684;SDS011;12020;51.384;6.908;2022-10-26T14:34:29;2.13;;;0.90;;
23684;SDS011;12020;51.384;6.908;2022-10-26T14:37:29;2.50;;;1.05;;
23684;SDS011;12020;51.384;6.908;2022-10-26T14:40:35;2.80;;;1.10;;
23684;SDS011;12020;51.384;6.908;2022-10-26T14:43:26;2.30;;;1.10;;
23684;SDS011;12020;51.384;6.908;2022-10-26T14:46:33;2.30;;;1.05;;
23684;SDS011;12020;51.384;6.908;2022-10-26T14:51:47;1.93;;;1.00;;
23684;SDS011;12020;51.384;6.908;2022-10-26T14:55:13;2.47;;;1.00;;
23684;SDS011;12020;51.384;6.908;2022-10-26T14:58:36;3.22;;;1.10;;
23684;SDS011;12020;51.384;6.908;2022-10-26T15:02:21;3.45;;;1.20;;
23684;SDS011;12020;51.384;6.908;2022-10-26T15:05:24;1.65;;;1.02;;
23684;SDS011;12020;51.384;6.908;2022-10-26T15:08:39;2.35;;;1.27;;
23684;SDS011;12020;51.384;6.908;2022-10-26T15:11:17;4.50;;;1.10;;
23684;SDS011;12020;51.384;6.908;2022-10-26T15:18:03;2.50;;;1.17;;
23684;SDS011;12020;51.384;6.908;2022-10-26T15:21:30;2.35;;;1.02;;
23684;SDS011;12020;51.384;6.908;2022-10-26T15:24:34;3.28;;;1.38;;
23684;SDS011;12020;51.384;6.908;2022-10-26T15:27:50;2.22;;;1.23;;
23684;SDS011;12020;51.384;6.908;2022-10-26T15:31:29;5.70;;;1.30;;
23684;SDS011;12020;51.384;6.908;2022-10-26T15:34:11;4.18;;;1.20;;
23684;SDS011;12020;51.384;6.908;2022-10-26T15:37:35;3.13;;;1.27;;
23684;SDS011;12020;51.384;6.908;2022-10-26T16:00:26;2.38;;;1.20;;
23684;SDS011;12020;51.384;6.908;2022-10-26T16:03:15;3.58;;;1.20;;
23684;SDS011;12020;51.384;6.908;2022-10-26T16:05:43;3.25;;;1.20;;
23684;SDS011;12020;51.384;6.908;2022-10-26T16:08:13;3.03;;;1.33;;
23684;SDS011;12020;51.384;6.908;2022-10-26T16:10:42;2.90;;;1.02;;
23684;SDS011;12020;51.384;6.908;2022-10-26T16:13:11;4.68;;;1.27;;
23684;SDS011;12020;51.384;6.908;2022-10-26T16:15:41;3.60;;;1.20;;
23684;SDS011;12020;51.384;6.908;2022-10-26T16:18:10;4.25;;;1.27;;
23684;SDS011;12020;51.384;6.908;2022-10-26T16:21:04;4.72;;;1.38;;
23684;SDS011;12020;51.384;6.908;2022-10-26T16:23:55;4.05;;;1.23;;
23684;SDS011;12020;51.384;6.908;2022-10-26T16:26:22;3.97;;;1.23;;
23684;SDS011;12020;51.384;6.908;2022-10-26T16:28:48;2.78;;;1.10;;
23684;SDS011;12020;51.384;6.908;2022-10-26T16:47:38;2.93;;;1.30;;
23684;SDS011;12020;51.384;6.908;2022-10-26T17:08:29;3.42;;;1.38;;
23684;SDS011;12020;51.384;6.908;2022-10-26T17:11:36;3.40;;;1.40;;
23684;SDS011;12020;51.384;6.908;2022-10-26T17:14:25;3.10;;;1.30;;
23684;SDS011;12020;51.384;6.908;2022-10-26T17:18:03;3.22;;;1.30;;
23684;SDS011;12020;51.384;6.908;2022-10-26T17:20:53;4.80;;;1.30;;
23684;SDS011;12020;51.384;6.908;2022-10-26T17:23:25;3.35;;;1.33;;
23684;SDS011;12020;51.384;6.908;2022-10-26T17:26:00;3.50;;;1.30;;
23684;SDS011;12020;51.384;6.908;2022-10-26T17:28:30;2.78;;;1.30;;
23684;SDS011;12020;51.384;6.908;2022-10-26T17:31:29;3.50;;;1.40;;
23684;SDS011;12020;51.384;6.908;2022-10-26T17:34:04;3.23;;;1.23;;
23684;SDS011;12020;51.384;6.908;2022-10-26T17:36:34;4.10;;;1.40;;
23684;SDS011;12020;51.384;6.908;2022-10-26T17:42:53;3.83;;;1.30;;
23684;SDS011;12020;51.384;6.908;2022-10-26T17:45:19;3.75;;;1.42;;
23684;SDS011;12020;51.384;6.908;2022-10-26T17:47:47;7.10;;;2.00;;
23684;SDS011;12020;51.384;6.908;2022-10-26T17:50:23;5.22;;;1.60;;
